sensor_id;sensor_type;location;lat;lon;timestamp;P1;durP1;ratioP1;P2;durP2;ratioP2
43696;SDS011;29301;47.620;19.560;2023-05-19T00:01:54;0.45;;;0.40;;
43696;SDS011;29301;47.620;19.560;2023-05-19T00:04:21;0.50;;;0.40;;
43696;SDS011;29301;47.620;19.560;2023-05-19T00:06:49;0.40;;;0.40;;
43696;SDS011;29301;47.620;19.560;2023-05-19T00:09:15;0.50;;;0.40;;
43696;SDS011;29301;47.620;19.560;2023-05-19T00:11:41;0.40;;;0.40;;
43696;SDS011;29301;47.620;19.560;2023-05-19T00:14:08;0.50;;;0.40;;
43696;SDS011;29301;47.620;19.560;2023-05-19T00:16:34;0.50;;;0.40;;
43696;SDS011;29301;47.620;19.560;2023-05-19T00:19:02;0.40;;;0.30;;
43696;SDS011;29301;47.620;19.560;2023-05-19T00:21:29;0.40;;;0.30;;
43696;SDS011;29301;47.620;19.560;2023-05-19T00:23:55;0.40;;;0.40;;
43696;SDS011;29301;47.620;19.560;2023-05-19T00:26:22;0.40;;;0.40;;
43696;SDS011;29301;47.620;19.560;2023-05-19T00:28:49;0.40;;;0.40;;
43696;SDS011;29301;47.620;19.560;2023-05-19T00:31:15;0.50;;;0.40;;
43696;SDS011;29301;47.620;19.560;2023-05-19T00:33:40;0.40;;;0.30;;
43696;SDS011;29301;47.620;19.560;2023-05-19T00:36:06;0.40;;;0.40;;
43696;SDS011;29301;47.620;19.560;2023-05-19T00:38:33;0.50;;;0.40;;
43696;SDS011;29301;47.620;19.560;2023-05-19T00:41:00;0.40;;;0.30;;
43696;SDS011;29301;47.620;19.560;2023-05-19T00:43:27;0.40;;;0.30;;
43696;SDS011;29301;47.620;19.560;2023-05-19T00:45:54;0.40;;;0.30;;
43696;SDS011;29301;47.620;19.560;2023-05-19T00:48:20;0.40;;;0.30;;
43696;SDS011;29301;47.620;19.560;2023-05-19T00:50:46;0.47;;;0.40;;
43696;SDS011;29301;47.620;19.560;2023-05-19T00:53:13;0.40;;;0.32;;
43696;SDS011;29301;47.620;19.560;2023-05-19T00:55:41;0.45;;;0.40;;
43696;SDS011;29301;47.620;19.560;2023-05-19T00:58:08;0.40;;;0.30;;
43696;SDS011;29301;47.620;19.560;2023-05-19T01:00:35;0.40;;;0.30;;
43696;SDS011;29301;47.620;19.560;2023-05-19T01:03:02;0.40;;;0.40;;
43696;SDS011;29301;47.620;19.560;2023-05-19T01:05:35;0.40;;;0.40;;
43696;SDS011;29301;47.620;19.560;2023-05-19T01:08:17;0.40;;;0.40;;
43696;SDS011;29301;47.620;19.560;2023-05-19T01:10:43;0.40;;;0.35;;
43696;SDS011;29301;47.620;19.560;2023-05-19T01:13:09;0.40;;;0.30;;
43696;SDS011;29301;47.620;19.560;2023-05-19T01:15:39;0.40;;;0.30;;
43696;SDS011;29301;47.620;19.560;2023-05-19T01:21:25;0.43;;;0.40;;
43696;SDS011;29301;47.620;19.560;2023-05-19T01:32:05;0.40;;;0.30;;
43696;SDS011;29301;47.620;19.560;2023-05-19T01:34:32;0.40;;;0.30;;
43696;SDS011;29301;47.620;19.560;2023-05-19T01:37:02;0.40;;;0.30;;
43696;SDS011;29301;47.620;19.560;2023-05-19T01:39:29;0.30;;;0.30;;
43696;SDS011;29301;47.620;19.560;2023-05-19T01:41:56;0.47;;;0.40;;
43696;SDS011;29301;47.620;19.560;2023-05-19T01:44:22;0.50;;;0.40;;
43696;SDS011;29301;47.620;19.560;2023-05-19T01:46:48;0.40;;;0.35;;
43696;SDS011;29301;47.620;19.560;2023-05-19T01:49:14;0.38;;;0.30;;
43696;SDS011;29301;47.620;19.560;2023-05-19T01:51:40;0.40;;;0.30;;
43696;SDS011;29301;47.620;19.560;2023-05-19T01:54:06;0.40;;;0.30;;
43696;SDS011;29301;47.620;19.560;2023-05-19T01:57:18;0.40;;;0.30;;
43696;SDS011;29301;47.620;19.560;2023-05-19T01:59:51;0.50;;;0.40;;
43696;SDS011;29301;47.620;19.560;2023-05-19T02:05:21;0.40;;;0.30;;
43696;SDS011;29301;47.620;19.560;2023-05-19T02:08:40;0.50;;;0.40;;
43696;SDS011;29301;47.620;19.560;2023-05-19T02:10:50;0.50;;;0.40;;
43696;SDS011;29301;47.620;19.560;2023-05-19T02:13:22;0.47;;;0.30;;
43696;SDS011;29301;47.620;19.560;2023-05-19T02:15:53;0.40;;;0.35;;
43696;SDS011;29301;47.620;19.560;2023-05-19T02:18:23;0.40;;;0.30;;
43696;SDS011;29301;47.620;19.560;2023-05-19T02:20:50;0.45;;;0.40;;
43696;SDS011;29301;47.620;19.560;2023-05-19T02:23:15;0.40;;;0.40;;
43696;SDS011;29301;47.620;19.560;2023-05-19T02:25:41;0.50;;;0.40;;
43696;SDS011;29301;47.620;19.560;2023-05-19T02:28:07;0.50;;;0.40;;
43696;SDS011;29301;47.620;19.560;2023-05-19T02:30:32;0.40;;;0.30;;
43696;SDS011;29301;47.620;19.560;2023-05-19T02:32:58;0.47;;;0.40;;
43696;SDS011;29301;47.620;19.560;2023-05-19T02:35:24;0.50;;;0.40;;
43696;SDS011;29301;47.620;19.560;2023-05-19T02:37:50;0.47;;;0.40;;
43696;SDS011;29301;47.620;19.560;2023-05-19T02:40:16;0.40;;;0.40;;
43696;SDS011;29301;47.620;19.560;2023-05-19T02:42:42;0.40;;;0.38;;
43696;SDS011;29301;47.620;19.560;2023-05-19T02:45:07;0.47;;;0.40;;
43696;SDS011;29301;47.620;19.560;2023-05-19T02:47:33;0.32;;;0.30;;
43696;SDS011;29301;47.620;19.560;2023-05-19T02:49:59;0.30;;;0.30;;
43696;SDS011;29301;47.620;19.560;2023-05-19T02:52:24;0.40;;;0.30;;
43696;SDS011;29301;47.620;19.560;2023-05-19T02:54:50;0.47;;;0.40;;
43696;SDS011;29301;47.620;19.560;2023-05-19T02:57:16;0.40;;;0.40;;
43696;SDS011;29301;47.620;19.560;2023-05-19T02:59:41;0.40;;;0.40;;
43696;SDS011;29301;47.620;19.560;2023-05-19T03:02:07;0.40;;;0.40;;
43696;SDS011;29301;47.620;19.560;2023-05-19T03:04:33;0.40;;;0.40;;
43696;SDS011;29301;47.620;19.560;2023-05-19T03:07:05;0.40;;;0.30;;
43696;SDS011;29301;47.620;19.560;2023-05-19T03:09:31;0.50;;;0.40;;
43696;SDS011;29301;47.620;19.560;2023-05-19T03:11:57;0.40;;;0.38;;
43696;SDS011;29301;47.620;19.560;2023-05-19T03:14:27;0.40;;;0.30;;
43696;SDS011;29301;47.620;19.560;2023-05-19T03:16:53;0.40;;;0.30;;
43696;SDS011;29301;47.620;19.560;2023-05-19T03:19:20;0.47;;;0.40;;
43696;SDS011;29301;47.620;19.560;2023-05-19T03:21:45;0.40;;;0.40;;
43696;SDS011;29301;47.620;19.560;2023-05-19T03:24:11;0.40;;;0.30;;
43696;SDS011;29301;47.620;19.560;2023-05-19T03:26:37;0.40;;;0.40;;
43696;SDS011;29301;47.620;19.560;2023-05-19T03:29:03;0.40;;;0.30;;
43696;SDS011;29301;47.620;19.560;2023-05-19T03:31:28;0.60;;;0.40;;
43696;SDS011;29301;47.620;19.560;2023-05-19T03:33:54;0.40;;;0.30;;
43696;SDS011;29301;47.620;19.560;2023-05-19T03:36:22;0.30;;;0.30;;
43696;SDS011;29301;47.620;19.560;2023-05-19T03:38:47;0.50;;;0.40;;
43696;SDS011;29301;47.620;19.560;2023-05-19T03:41:13;0.40;;;0.30;;
43696;SDS011;29301;47.620;19.560;2023-05-19T03:43:39;0.50;;;0.40;;
43696;SDS011;29301;47.620;19.560;2023-05-19T03:46:05;0.35;;;0.30;;
43696;SDS011;29301;47.620;19.560;2023-05-19T03:48:30;0.40;;;0.30;;
43696;SDS011;29301;47.620;19.560;2023-05-19T03:50:56;0.40;;;0.35;;
43696;SDS011;29301;47.620;19.560;2023-05-19T03:53:22;0.40;;;0.40;;
43696;SDS011;29301;47.620;19.560;2023-05-19T03:55:48;0.50;;;0.40;;
43696;SDS011;29301;47.620;19.560;2023-05-19T03:58:14;0.50;;;0.40;;
43696;SDS011;29301;47.620;19.560;2023-05-19T04:00:40;0.50;;;0.40;;
43696;SDS011;29301;47.620;19.560;2023-05-19T04:03:06;0.50;;;0.40;;
43696;SDS011;29301;47.620;19.560;2023-05-19T04:05:32;0.40;;;0.40;;
43696;SDS011;29301;47.620;19.560;2023-05-19T04:07:58;0.40;;;0.30;;
43696;SDS011;29301;47.620;19.560;2023-05-19T04:10:24;0.40;;;0.30;;
43696;SDS011;29301;47.620;19.560;2023-05-19T04:12:49;0.40;;;0.40;;
43696;SDS011;29301;47.620;19.560;2023-05-19T04:15:15;0.40;;;0.30;;
43696;SDS011;29301;47.620;19.560;2023-05-19T04:17:41;0.40;;;0.30;;
43696;SDS011;29301;47.620;19.560;2023-05-19T04:20:07;0.40;;;0.30;;
43696;SDS011;29301;47.620;19.560;2023-05-19T04:22:33;0.50;;;0.40;;
43696;SDS011;29301;47.620;19.560;2023-05-19T04:24:59;0.40;;;0.40;;
43696;SDS011;29301;47.620;19.560;2023-05-19T04:27:25;0.50;;;0.40;;
43696;SDS011;29301;47.620;19.560;2023-05-19T04:29:53;0.50;;;0.40;;
43696;SDS011;29301;47.620;19.560;2023-05-19T04:32:18;0.40;;;0.40;;
43696;SDS011;29301;47.620;19.560;2023-05-19T04:34:44;0.50;;;0.40;;
43696;SDS011;29301;47.620;19.560;2023-05-19T04:37:13;0.40;;;0.30;;
43696;SDS011;29301;47.620;19.560;2023-05-19T04:39:42;0.40;;;0.30;;
43696;SDS011;29301;47.620;19.560;2023-05-19T04:42:09;0.50;;;0.40;;
43696;SDS011;29301;47.620;19.560;2023-05-19T04:44:35;0.40;;;0.40;;
43696;SDS011;29301;47.620;19.560;2023-05-19T04:47:05;0.43;;;0.35;;
43696;SDS011;29301;47.620;19.560;2023-05-19T04:49:32;0.43;;;0.40;;
43696;SDS011;29301;47.620;19.560;2023-05-19T04:52:05;0.40;;;0.40;;
43696;SDS011;29301;47.620;19.560;2023-05-19T04:54:33;0.45;;;0.30;;
43696;SDS011;29301;47.620;19.560;2023-05-19T04:56:59;0.40;;;0.32;;
43696;SDS011;29301;47.620;19.560;2023-05-19T04:59:24;0.50;;;0.40;;
43696;SDS011;29301;47.620;19.560;2023-05-19T05:01:50;0.40;;;0.40;;
43696;SDS011;29301;47.620;19.560;2023-05-19T05:04:16;0.50;;;0.40;;
43696;SDS011;29301;47.620;19.560;2023-05-19T05:06:41;0.40;;;0.40;;
43696;SDS011;29301;47.620;19.560;2023-05-19T05:09:12;0.50;;;0.40;;
43696;SDS011;29301;47.620;19.560;2023-05-19T05:11:41;0.50;;;0.40;;
43696;SDS011;29301;47.620;19.560;2023-05-19T05:14:07;0.40;;;0.40;;
43696;SDS011;29301;47.620;19.560;2023-05-19T05:16:34;0.50;;;0.40;;
43696;SDS011;29301;47.620;19.560;2023-05-19T05:19:00;0.50;;;0.40;;
43696;SDS011;29301;47.620;19.560;2023-05-19T05:21:26;0.40;;;0.40;;
43696;SDS011;29301;47.620;19.560;2023-05-19T05:23:53;0.40;;;0.30;;
43696;SDS011;29301;47.620;19.560;2023-05-19T05:26:19;0.40;;;0.38;;
43696;SDS011;29301;47.620;19.560;2023-05-19T05:28:47;0.40;;;0.30;;
43696;SDS011;29301;47.620;19.560;2023-05-19T05:31:13;0.40;;;0.30;;
43696;SDS011;29301;47.620;19.560;2023-05-19T05:33:39;0.40;;;0.40;;
43696;SDS011;29301;47.620;19.560;2023-05-19T05:36:05;0.40;;;0.30;;
43696;SDS011;29301;47.620;19.560;2023-05-19T05:38:31;0.40;;;0.30;;
43696;SDS011;29301;47.620;19.560;2023-05-19T05:40:57;0.43;;;0.40;;
43696;SDS011;29301;47.620;19.560;2023-05-19T05:43:22;0.50;;;0.40;;
43696;SDS011;29301;47.620;19.560;2023-05-19T05:45:48;0.45;;;0.40;;
43696;SDS011;29301;47.620;19.560;2023-05-19T05:48:14;0.40;;;0.40;;
43696;SDS011;29301;47.620;19.560;2023-05-19T05:50:41;0.40;;;0.30;;
43696;SDS011;29301;47.620;19.560;2023-05-19T05:53:08;0.50;;;0.40;;
43696;SDS011;29301;47.620;19.560;2023-05-19T05:55:38;0.47;;;0.40;;
43696;SDS011;29301;47.620;19.560;2023-05-19T05:58:04;0.35;;;0.35;;
43696;SDS011;29301;47.620;19.560;2023-05-19T06:00:30;0.30;;;0.30;;
43696;SDS011;29301;47.620;19.560;2023-05-19T06:02:56;0.40;;;0.30;;
43696;SDS011;29301;47.620;19.560;2023-05-19T06:05:22;0.47;;;0.40;;
43696;SDS011;29301;47.620;19.560;2023-05-19T06:07:49;0.40;;;0.30;;
43696;SDS011;29301;47.620;19.560;2023-05-19T06:10:14;0.60;;;0.50;;
43696;SDS011;29301;47.620;19.560;2023-05-19T06:12:40;0.40;;;0.30;;
43696;SDS011;29301;47.620;19.560;2023-05-19T06:15:07;0.40;;;0.30;;
43696;SDS011;29301;47.620;19.560;2023-05-19T06:17:33;0.40;;;0.32;;
43696;SDS011;29301;47.620;19.560;2023-05-19T06:20:02;0.40;;;0.30;;
43696;SDS011;29301;47.620;19.560;2023-05-19T06:22:29;0.50;;;0.40;;
43696;SDS011;29301;47.620;19.560;2023-05-19T06:24:55;0.40;;;0.30;;
43696;SDS011;29301;47.620;19.560;2023-05-19T06:27:21;0.30;;;0.30;;
43696;SDS011;29301;47.620;19.560;2023-05-19T06:29:47;0.30;;;0.30;;
43696;SDS011;29301;47.620;19.560;2023-05-19T06:32:12;0.40;;;0.30;;
43696;SDS011;29301;47.620;19.560;2023-05-19T06:34:38;0.40;;;0.30;;
43696;SDS011;29301;47.620;19.560;2023-05-19T06:37:04;0.40;;;0.30;;
43696;SDS011;29301;47.620;19.560;2023-05-19T06:39:30;0.35;;;0.30;;
43696;SDS011;29301;47.620;19.560;2023-05-19T06:41:56;0.40;;;0.30;;
43696;SDS011;29301;47.620;19.560;2023-05-19T06:44:21;0.50;;;0.40;;
43696;SDS011;29301;47.620;19.560;2023-05-19T06:46:47;0.40;;;0.30;;
43696;SDS011;29301;47.620;19.560;2023-05-19T06:49:12;0.47;;;0.30;;
43696;SDS011;29301;47.620;19.560;2023-05-19T06:51:38;0.40;;;0.30;;
43696;SDS011;29301;47.620;19.560;2023-05-19T06:54:04;0.40;;;0.32;;
43696;SDS011;29301;47.620;19.560;2023-05-19T06:56:30;0.40;;;0.30;;
43696;SDS011;29301;47.620;19.560;2023-05-19T06:58:55;0.40;;;0.22;;
43696;SDS011;29301;47.620;19.560;2023-05-19T07:01:21;0.43;;;0.30;;
43696;SDS011;29301;47.620;19.560;2023-05-19T07:03:47;0.47;;;0.30;;
43696;SDS011;29301;47.620;19.560;2023-05-19T07:06:12;0.40;;;0.30;;
43696;SDS011;29301;47.620;19.560;2023-05-19T07:08:38;0.50;;;0.30;;
43696;SDS011;29301;47.620;19.560;2023-05-19T07:11:04;0.40;;;0.20;;
43696;SDS011;29301;47.620;19.560;2023-05-19T07:13:30;0.40;;;0.30;;
43696;SDS011;29301;47.620;19.560;2023-05-19T07:15:56;0.40;;;0.30;;
43696;SDS011;29301;47.620;19.560;2023-05-19T07:18:22;0.50;;;0.40;;
43696;SDS011;29301;47.620;19.560;2023-05-19T07:20:48;0.40;;;0.30;;
43696;SDS011;29301;47.620;19.560;2023-05-19T07:23:15;0.40;;;0.25;;
43696;SDS011;29301;47.620;19.560;2023-05-19T07:25:41;0.40;;;0.32;;
43696;SDS011;29301;47.620;19.560;2023-05-19T07:28:07;0.45;;;0.30;;
43696;SDS011;29301;47.620;19.560;2023-05-19T07:30:32;0.40;;;0.30;;
43696;SDS011;29301;47.620;19.560;2023-05-19T07:32:58;0.40;;;0.30;;
43696;SDS011;29301;47.620;19.560;2023-05-19T07:35:24;0.40;;;0.30;;
43696;SDS011;29301;47.620;19.560;2023-05-19T07:37:50;0.40;;;0.30;;
43696;SDS011;29301;47.620;19.560;2023-05-19T07:40:16;0.47;;;0.30;;
43696;SDS011;29301;47.620;19.560;2023-05-19T07:42:42;0.40;;;0.30;;
43696;SDS011;29301;47.620;19.560;2023-05-19T07:45:18;0.31;;;0.20;;
43696;SDS011;29301;47.620;19.560;2023-05-19T07:47:43;0.45;;;0.30;;
43696;SDS011;29301;47.620;19.560;2023-05-19T07:50:09;0.40;;;0.30;;
43696;SDS011;29301;47.620;19.560;2023-05-19T07:52:35;0.40;;;0.22;;
43696;SDS011;29301;47.620;19.560;2023-05-19T07:55:01;0.40;;;0.20;;
43696;SDS011;29301;47.620;19.560;2023-05-19T07:57:26;0.40;;;0.30;;
43696;SDS011;29301;47.620;19.560;2023-05-19T07:59:52;0.45;;;0.30;;
43696;SDS011;29301;47.620;19.560;2023-05-19T08:02:18;0.40;;;0.20;;
43696;SDS011;29301;47.620;19.560;2023-05-19T08:04:43;0.47;;;0.30;;
43696;SDS011;29301;47.620;19.560;2023-05-19T08:07:09;0.32;;;0.20;;
43696;SDS011;29301;47.620;19.560;2023-05-19T08:09:35;0.30;;;0.20;;
43696;SDS011;29301;47.620;19.560;2023-05-19T08:12:01;0.30;;;0.20;;
43696;SDS011;29301;47.620;19.560;2023-05-19T08:14:28;0.40;;;0.30;;
43696;SDS011;29301;47.620;19.560;2023-05-19T08:16:55;0.38;;;0.20;;
43696;SDS011;29301;47.620;19.560;2023-05-19T08:19:21;0.30;;;0.20;;
43696;SDS011;29301;47.620;19.560;2023-05-19T08:21:46;0.25;;;0.20;;
43696;SDS011;29301;47.620;19.560;2023-05-19T08:24:13;0.20;;;0.20;;
43696;SDS011;29301;47.620;19.560;2023-05-19T08:26:39;0.20;;;0.20;;
43696;SDS011;29301;47.620;19.560;2023-05-19T08:29:04;0.30;;;0.30;;
43696;SDS011;29301;47.620;19.560;2023-05-19T08:31:30;0.20;;;0.20;;
43696;SDS011;29301;47.620;19.560;2023-05-19T08:33:56;0.30;;;0.30;;
43696;SDS011;29301;47.620;19.560;2023-05-19T08:36:22;0.30;;;0.20;;
43696;SDS011;29301;47.620;19.560;2023-05-19T08:38:48;0.30;;;0.22;;
43696;SDS011;29301;47.620;19.560;2023-05-19T08:41:14;0.30;;;0.20;;
43696;SDS011;29301;47.620;19.560;2023-05-19T08:43:40;0.20;;;0.20;;
43696;SDS011;29301;47.620;19.560;2023-05-19T08:46:06;0.22;;;0.20;;
43696;SDS011;29301;47.620;19.560;2023-05-19T08:48:34;0.30;;;0.30;;
43696;SDS011;29301;47.620;19.560;2023-05-19T08:51:08;0.20;;;0.20;;
43696;SDS011;29301;47.620;19.560;2023-05-19T08:53:39;0.28;;;0.28;;
43696;SDS011;29301;47.620;19.560;2023-05-19T08:56:17;0.30;;;0.30;;
43696;SDS011;29301;47.620;19.560;2023-05-19T08:58:45;0.30;;;0.20;;
43696;SDS011;29301;47.620;19.560;2023-05-19T09:01:14;0.20;;;0.20;;
43696;SDS011;29301;47.620;19.560;2023-05-19T09:03:41;0.40;;;0.28;;
43696;SDS011;29301;47.620;19.560;2023-05-19T09:06:08;0.40;;;0.30;;
43696;SDS011;29301;47.620;19.560;2023-05-19T09:08:41;0.20;;;0.20;;
43696;SDS011;29301;47.620;19.560;2023-05-19T09:11:08;0.20;;;0.20;;
43696;SDS011;29301;47.620;19.560;2023-05-19T09:13:34;0.20;;;0.20;;
43696;SDS011;29301;47.620;19.560;2023-05-19T09:16:00;0.20;;;0.20;;
43696;SDS011;29301;47.620;19.560;2023-05-19T09:18:27;0.20;;;0.20;;
43696;SDS011;29301;47.620;19.560;2023-05-19T09:20:56;0.20;;;0.20;;
43696;SDS011;29301;47.620;19.560;2023-05-19T09:23:27;0.20;;;0.20;;
43696;SDS011;29301;47.620;19.560;2023-05-19T09:26:00;0.20;;;0.20;;
43696;SDS011;29301;47.620;19.560;2023-05-19T09:28:28;0.20;;;0.20;;
43696;SDS011;29301;47.620;19.560;2023-05-19T09:31:02;0.10;;;0.10;;
43696;SDS011;29301;47.620;19.560;2023-05-19T09:33:36;0.20;;;0.20;;
43696;SDS011;29301;47.620;19.560;2023-05-19T09:36:08;0.22;;;0.22;;
43696;SDS011;29301;47.620;19.560;2023-05-19T09:38:36;0.20;;;0.20;;
43696;SDS011;29301;47.620;19.560;2023-05-19T09:41:03;0.20;;;0.20;;
43696;SDS011;29301;47.620;19.560;2023-05-19T09:43:30;0.30;;;0.30;;
43696;SDS011;29301;47.620;19.560;2023-05-19T09:46:04;0.10;;;0.10;;
43696;SDS011;29301;47.620;19.560;2023-05-19T09:48:35;0.20;;;0.20;;
43696;SDS011;29301;47.620;19.560;2023-05-19T09:51:02;0.20;;;0.20;;
43696;SDS011;29301;47.620;19.560;2023-05-19T09:53:29;0.20;;;0.20;;
43696;SDS011;29301;47.620;19.560;2023-05-19T09:55:57;0.20;;;0.20;;
43696;SDS011;29301;47.620;19.560;2023-05-19T09:58:29;0.20;;;0.20;;
43696;SDS011;29301;47.620;19.560;2023-05-19T10:03:25;0.20;;;0.20;;
43696;SDS011;29301;47.620;19.560;2023-05-19T10:05:52;0.10;;;0.10;;
43696;SDS011;29301;47.620;19.560;2023-05-19T10:08:18;0.20;;;0.20;;
43696;SDS011;29301;47.620;19.560;2023-05-19T10:10:45;0.20;;;0.20;;
43696;SDS011;29301;47.620;19.560;2023-05-19T10:13:12;0.20;;;0.20;;
43696;SDS011;29301;47.620;19.560;2023-05-19T10:15:39;0.20;;;0.20;;
43696;SDS011;29301;47.620;19.560;2023-05-19T10:18:07;0.10;;;0.10;;
43696;SDS011;29301;47.620;19.560;2023-05-19T10:20:34;0.20;;;0.20;;
43696;SDS011;29301;47.620;19.560;2023-05-19T10:23:00;0.20;;;0.20;;
43696;SDS011;29301;47.620;19.560;2023-05-19T10:25:27;0.20;;;0.20;;
43696;SDS011;29301;47.620;19.560;2023-05-19T10:28:04;0.10;;;0.10;;
43696;SDS011;29301;47.620;19.560;2023-05-19T10:30:39;0.20;;;0.20;;
43696;SDS011;29301;47.620;19.560;2023-05-19T10:33:08;0.10;;;0.10;;
43696;SDS011;29301;47.620;19.560;2023-05-19T10:35:43;0.20;;;0.20;;
43696;SDS011;29301;47.620;19.560;2023-05-19T10:46:15;0.20;;;0.20;;
43696;SDS011;29301;47.620;19.560;2023-05-19T10:48:44;0.10;;;0.10;;
43696;SDS011;29301;47.620;19.560;2023-05-19T10:51:10;0.20;;;0.20;;
43696;SDS011;29301;47.620;19.560;2023-05-19T10:53:39;0.20;;;0.20;;
43696;SDS011;29301;47.620;19.560;2023-05-19T10:56:11;0.20;;;0.20;;
43696;SDS011;29301;47.620;19.560;2023-05-19T10:58:57;0.17;;;0.17;;
43696;SDS011;29301;47.620;19.560;2023-05-19T11:01:28;0.10;;;0.10;;
43696;SDS011;29301;47.620;19.560;2023-05-19T11:04:06;0.20;;;0.20;;
43696;SDS011;29301;47.620;19.560;2023-05-19T11:06:36;0.20;;;0.20;;
43696;SDS011;29301;47.620;19.560;2023-05-19T11:09:11;0.20;;;0.20;;
43696;SDS011;29301;47.620;19.560;2023-05-19T11:11:44;0.20;;;0.20;;
43696;SDS011;29301;47.620;19.560;2023-05-19T11:14:25;0.10;;;0.10;;
43696;SDS011;29301;47.620;19.560;2023-05-19T11:16:52;0.17;;;0.17;;
43696;SDS011;29301;47.620;19.560;2023-05-19T11:21:50;0.20;;;0.20;;
43696;SDS011;29301;47.620;19.560;2023-05-19T11:29:46;0.10;;;0.10;;
43696;SDS011;29301;47.620;19.560;2023-05-19T11:32:13;0.13;;;0.13;;
43696;SDS011;29301;47.620;19.560;2023-05-19T11:34:39;0.10;;;0.10;;
43696;SDS011;29301;47.620;19.560;2023-05-19T11:37:05;0.10;;;0.10;;
43696;SDS011;29301;47.620;19.560;2023-05-19T11:39:32;0.10;;;0.10;;
43696;SDS011;29301;47.620;19.560;2023-05-19T11:41:59;0.20;;;0.20;;
43696;SDS011;29301;47.620;19.560;2023-05-19T11:44:24;0.20;;;0.20;;
43696;SDS011;29301;47.620;19.560;2023-05-19T11:46:50;0.20;;;0.20;;
43696;SDS011;29301;47.620;19.560;2023-05-19T11:49:16;0.20;;;0.20;;
43696;SDS011;29301;47.620;19.560;2023-05-19T11:51:42;0.20;;;0.20;;
43696;SDS011;29301;47.620;19.560;2023-05-19T11:54:12;0.20;;;0.20;;
43696;SDS011;29301;47.620;19.560;2023-05-19T11:56:41;0.20;;;0.20;;
43696;SDS011;29301;47.620;19.560;2023-05-19T11:59:07;0.13;;;0.13;;
43696;SDS011;29301;47.620;19.560;2023-05-19T12:01:33;0.10;;;0.10;;
43696;SDS011;29301;47.620;19.560;2023-05-19T12:04:00;0.10;;;0.10;;
43696;SDS011;29301;47.620;19.560;2023-05-19T12:06:26;0.10;;;0.10;;
43696;SDS011;29301;47.620;19.560;2023-05-19T12:08:53;0.20;;;0.20;;
43696;SDS011;29301;47.620;19.560;2023-05-19T12:11:19;0.20;;;0.20;;
43696;SDS011;29301;47.620;19.560;2023-05-19T12:13:45;0.20;;;0.20;;
43696;SDS011;29301;47.620;19.560;2023-05-19T12:16:11;0.13;;;0.13;;
43696;SDS011;29301;47.620;19.560;2023-05-19T12:18:37;0.15;;;0.15;;
43696;SDS011;29301;47.620;19.560;2023-05-19T12:21:04;0.10;;;0.10;;
43696;SDS011;29301;47.620;19.560;2023-05-19T12:23:30;0.10;;;0.10;;
43696;SDS011;29301;47.620;19.560;2023-05-19T12:25:57;0.13;;;0.13;;
43696;SDS011;29301;47.620;19.560;2023-05-19T12:28:24;0.10;;;0.10;;
43696;SDS011;29301;47.620;19.560;2023-05-19T12:30:50;0.20;;;0.20;;
43696;SDS011;29301;47.620;19.560;2023-05-19T12:33:17;0.10;;;0.10;;
43696;SDS011;29301;47.620;19.560;2023-05-19T12:35:44;0.20;;;0.20;;
43696;SDS011;29301;47.620;19.560;2023-05-19T12:38:10;0.20;;;0.20;;
43696;SDS011;29301;47.620;19.560;2023-05-19T12:40:36;0.10;;;0.10;;
43696;SDS011;29301;47.620;19.560;2023-05-19T12:43:03;0.20;;;0.20;;
43696;SDS011;29301;47.620;19.560;2023-05-19T12:45:38;0.10;;;0.10;;
43696;SDS011;29301;47.620;19.560;2023-05-19T12:48:12;0.10;;;0.10;;
43696;SDS011;29301;47.620;19.560;2023-05-19T12:50:42;0.10;;;0.10;;
43696;SDS011;29301;47.620;19.560;2023-05-19T12:53:11;0.13;;;0.13;;
43696;SDS011;29301;47.620;19.560;2023-05-19T12:55:40;0.15;;;0.15;;
43696;SDS011;29301;47.620;19.560;2023-05-19T12:58:07;0.15;;;0.15;;
43696;SDS011;29301;47.620;19.560;2023-05-19T13:00:39;0.20;;;0.20;;
43696;SDS011;29301;47.620;19.560;2023-05-19T13:03:15;0.20;;;0.20;;
43696;SDS011;29301;47.620;19.560;2023-05-19T13:05:43;0.10;;;0.10;;
43696;SDS011;29301;47.620;19.560;2023-05-19T13:08:14;0.20;;;0.20;;
43696;SDS011;29301;47.620;19.560;2023-05-19T13:10:42;0.20;;;0.20;;
43696;SDS011;29301;47.620;19.560;2023-05-19T13:13:09;0.20;;;0.20;;
43696;SDS011;29301;47.620;19.560;2023-05-19T13:15:39;0.20;;;0.20;;
43696;SDS011;29301;47.620;19.560;2023-05-19T13:18:07;0.20;;;0.20;;
43696;SDS011;29301;47.620;19.560;2023-05-19T13:20:34;0.10;;;0.10;;
43696;SDS011;29301;47.620;19.560;2023-05-19T13:23:00;0.20;;;0.20;;
43696;SDS011;29301;47.620;19.560;2023-05-19T13:25:26;0.10;;;0.10;;
43696;SDS011;29301;47.620;19.560;2023-05-19T13:27:52;0.20;;;0.20;;
43696;SDS011;29301;47.620;19.560;2023-05-19T13:30:23;0.10;;;0.10;;
43696;SDS011;29301;47.620;19.560;2023-05-19T13:32:49;0.10;;;0.10;;
43696;SDS011;29301;47.620;19.560;2023-05-19T13:35:16;0.10;;;0.10;;
43696;SDS011;29301;47.620;19.560;2023-05-19T13:37:42;0.13;;;0.13;;
43696;SDS011;29301;47.620;19.560;2023-05-19T13:40:07;0.20;;;0.20;;
43696;SDS011;29301;47.620;19.560;2023-05-19T13:42:34;0.10;;;0.10;;
43696;SDS011;29301;47.620;19.560;2023-05-19T13:45:00;0.10;;;0.10;;
43696;SDS011;29301;47.620;19.560;2023-05-19T13:47:26;0.10;;;0.10;;
43696;SDS011;29301;47.620;19.560;2023-05-19T13:49:52;0.10;;;0.10;;
43696;SDS011;29301;47.620;19.560;2023-05-19T13:52:19;0.10;;;0.10;;
43696;SDS011;29301;47.620;19.560;2023-05-19T13:54:45;0.10;;;0.10;;
43696;SDS011;29301;47.620;19.560;2023-05-19T13:57:12;0.15;;;0.15;;
43696;SDS011;29301;47.620;19.560;2023-05-19T13:59:37;0.13;;;0.13;;
43696;SDS011;29301;47.620;19.560;2023-05-19T14:02:03;0.20;;;0.20;;
43696;SDS011;29301;47.620;19.560;2023-05-19T14:04:30;0.10;;;0.10;;
43696;SDS011;29301;47.620;19.560;2023-05-19T14:06:56;0.10;;;0.10;;
43696;SDS011;29301;47.620;19.560;2023-05-19T14:09:22;0.20;;;0.20;;
43696;SDS011;29301;47.620;19.560;2023-05-19T14:11:48;0.20;;;0.20;;
43696;SDS011;29301;47.620;19.560;2023-05-19T14:14:14;0.20;;;0.20;;
43696;SDS011;29301;47.620;19.560;2023-05-19T14:16:40;0.20;;;0.20;;
43696;SDS011;29301;47.620;19.560;2023-05-19T14:19:06;0.10;;;0.10;;
43696;SDS011;29301;47.620;19.560;2023-05-19T14:21:32;0.20;;;0.20;;
43696;SDS011;29301;47.620;19.560;2023-05-19T14:23:58;0.10;;;0.10;;
43696;SDS011;29301;47.620;19.560;2023-05-19T14:26:23;0.20;;;0.20;;
43696;SDS011;29301;47.620;19.560;2023-05-19T14:28:50;0.20;;;0.20;;
43696;SDS011;29301;47.620;19.560;2023-05-19T14:31:15;0.20;;;0.20;;
43696;SDS011;29301;47.620;19.560;2023-05-19T14:33:41;0.20;;;0.20;;
43696;SDS011;29301;47.620;19.560;2023-05-19T14:36:08;0.10;;;0.10;;
43696;SDS011;29301;47.620;19.560;2023-05-19T14:38:34;0.17;;;0.17;;
43696;SDS011;29301;47.620;19.560;2023-05-19T14:40:59;0.20;;;0.20;;
43696;SDS011;29301;47.620;19.560;2023-05-19T14:43:25;0.10;;;0.10;;
43696;SDS011;29301;47.620;19.560;2023-05-19T14:45:51;0.20;;;0.20;;
43696;SDS011;29301;47.620;19.560;2023-05-19T14:48:17;0.20;;;0.20;;
43696;SDS011;29301;47.620;19.560;2023-05-19T14:50:42;0.20;;;0.20;;
43696;SDS011;29301;47.620;19.560;2023-05-19T14:53:08;0.10;;;0.10;;
43696;SDS011;29301;47.620;19.560;2023-05-19T14:55:34;0.20;;;0.20;;
43696;SDS011;29301;47.620;19.560;2023-05-19T14:58:00;0.20;;;0.20;;
43696;SDS011;29301;47.620;19.560;2023-05-19T15:00:26;0.20;;;0.20;;
43696;SDS011;29301;47.620;19.560;2023-05-19T15:02:52;0.20;;;0.20;;
43696;SDS011;29301;47.620;19.560;2023-05-19T15:05:18;0.20;;;0.20;;
43696;SDS011;29301;47.620;19.560;2023-05-19T15:07:44;0.20;;;0.20;;